CSL9 weather

Baie-Comeau (Manic 1) Airport
Baie-Comeau, Quebec, Canada

Public forecast

Using degrees Celsius for public forecast. Weather courtesy of forecast.io.

Closest aviation weather report (METAR) to Baie-Comeau (Manic 1) Airport

Closest report is Baie Comeau Airport, 6.9 nm (12.9 km) ESE. Retrieved 2020/01/22 10:00 UTC (34 minutes ago):

CYBC 221000Z AUTO 27002KT 1 1/4SM -SN BKN019 OVC023 M10/M11 A3023 RMK VIS VRB 3/4-2 1/4 SLP242

Closest aviation forecast (TAF) to Baie-Comeau (Manic 1) Airport

Closest forecast is Baie Comeau Airport, 6.9 nm (12.9 km) ESE. Retrieved 2020/01/22 08:00 UTC (3 hours ago):

TAF CYBC 220738Z 2208/2220 VRB03KT P6SM FEW020 BKN060 TEMPO 2208/2217 BKN020 BKN060 BECMG 2212/2214 14008KT FM221700 14006KT 6SM -SN BKN030 OVC100 TEMPO 2217/2220 2SM -SN BKN020 OVC030 BECMG 2218/2220 09008KT RMK FCST BASED ON AUTO OBS NXT FCST BY 221400Z